ENVAENOL

Guest
Details From ENVA - Vaernes
To ENOL - Orland
Flight Number -
Tags Routegen Generated
Created
Modified
Stats Distance 38 nm / 71 km
Max Altitude 100 ft / 30 m
Waypoints 5
Social Downloads 1
Likes 0
Share

Download

Looking for another format? Having issues loading an existing format? Contact us
Advertisement - Login to hide

Notes

Departing runway 27 ENVA. Arriving runway 15 ENOL.

Route

ENVA +63.46_+010.73 +63.54_+010.21 +63.62_+009.69 ENOL

ID Type Via Altitude (ft/m) Position (lat/lon) Dist (leg/tot) Name
O ENVA APT - 0 / 0 63.45766 / 10.88929 - / 0 nm
+63.46_+010.73 LATLON - 100 / 30 63.45789 / 10.72735 4 / 4 nm
+63.54_+010.21 LATLON - 100 / 30 63.54037 / 10.20728 14 / 19 nm
+63.62_+009.69 LATLON - 100 / 30 63.62286 / 9.68721 14 / 33 nm
O ENOL APT - 0 / 0 63.68796 / 9.61601 4 / 38 nm

Altitude Profile

Advertisement - Login to hide

ENVA

Details ICAO ENVA (TRD)
Name Trondheim Vaernes
Region Norway
Timezone Europe/Oslo (UTC+2.0)
Stats Elevation 56 ft / 17 m (AMSL)
Location 63.457500° 10.924200°
Runways 1
Magnetic Variation 4.030° E

METAR

ENVA 260320Z VRB01KT 9999 FEW032 06/04 Q1015 RMK WIND 670FT 05008KT

Decode

TAF

TAF ENVA 252300Z 2600/2624 10007KT 9999 FEW030 BKN050

Decode

Departure Runways

ID Width Length Bearing (true/mag) Surface Threshold Overrun Markings Lighting
09 148 ft / 45 m 9,744 ft / 2,970 m 90.18° / 86.15° ASPHALT 830 ft / 253 m 0 ft / 0 m PREC-APP CENTERLINE EDGE THRESHOLD CALVERT REIL-OMNI
27 148 ft / 45 m 9,744 ft / 2,970 m 270.24° / 266.21° ASPHALT 745 ft / 227 m 0 ft / 0 m PREC-APP CENTERLINE EDGE THRESHOLD CALVERT REIL-OMNI

ENOL

Details ICAO ENOL (OLA)
Name Oerland
Region Norway
Timezone Europe/Oslo (UTC+2.0)
Stats Elevation 29 ft / 9 m (AMSL)
Location 63.700000° 9.602780°
Runways 1
Magnetic Variation 3.410° E

METAR

ENOL 260320Z 04006KT CAVOK 06/03 Q1016

Decode

TAF

TAF ENOL 252300Z 2600/2624 05008KT 9999 FEW015 SCT050

Decode

Destination Runways

ID Width Length Bearing (true/mag) Surface Threshold Overrun Markings Lighting
15 148 ft / 45 m 10,728 ft / 3,270 m 154.07° / 150.66° ASPHALT 456 ft / 139 m 295 ft / 90 m PREC-APP EDGE THRESHOLD MALS
33 148 ft / 45 m 10,728 ft / 3,270 m 334.09° / 330.68° ASPHALT 453 ft / 138 m 295 ft / 90 m PREC-APP EDGE THRESHOLD MALS

Approach Navaids

Runway Type Ident Frequency Range Bearing (true/mag) Slope Elevation
15 LOC-ILS OL 109.30 MHz 18 nm / 33 km 154.09° / 150.68 ° - 28 ft / 9 m (AMSL)
15 GS OL 109.30 MHz 10 nm / 19 km 154.14° / 150.73 ° 3.00° 28 ft / 9 m (AMSL)
15 MM MM - - 154.07° / 150.66 ° - 28 ft / 9 m (AMSL)
15 DME OL 109.30 MHz 18 nm / 33 km - - 46 ft / 14 m (AMSL)
33 DME ON 108.30 MHz 18 nm / 33 km - - 50 ft / 15 m (AMSL)
33 LOC-ILS ON 108.30 MHz 18 nm / 33 km 334.06° / 330.65 ° - 28 ft / 9 m (AMSL)
33 GS ON 108.30 MHz 10 nm / 19 km 334.14° / 330.73 ° 3.30° 28 ft / 9 m (AMSL)

Popular Alternatives